Time;durP1;ratioP1;P1;durP2;ratioP2;P2;SDS_P1;SDS_P2;PMS_P1;PMS_P2;Temp;Humidity;BMP_temperature;BMP_pressure;BME280_temperature;BME280_humidity;BME280_pressure;Samples;Min_cycle;Max_cycle;Signal;HPM_P1;HPM_P2
2022/12/30 00:01:08;;;;;;;0.77;0.50;;;10.70;99.90;;;;;;5071382;28;20205;-62
2022/12/30 00:03:37;;;;;;;1.70;0.30;;;10.70;99.90;;;;;;5071124;28;20225;-63
2022/12/30 00:06:04;;;;;;;0.67;0.57;;;10.60;99.90;;;;;;5071492;28;20216;-63
2022/12/30 00:08:49;;;;;;;2.00;0.60;;;10.50;99.90;;;;;;5071574;28;20213;-62
2022/12/30 00:11:18;;;;;;;0.93;0.60;;;10.30;99.90;;;;;;5071487;28;20205;-63
2022/12/30 00:33:28;;;;;;;1.53;0.90;;;10.20;99.90;;;;;;5074715;28;20783;-62
2022/12/30 00:35:57;;;;;;;1.60;0.60;;;10.20;99.90;;;;;;5074716;28;20606;-64
2022/12/30 00:38:24;;;;;;;2.57;2.13;;;10.10;99.90;;;;;;5074879;28;20209;-62
2022/12/30 00:43:34;;;;;;;0.50;0.40;;;10.10;99.90;;;;;;5074550;28;20601;-63
2022/12/30 00:46:01;;;;;;;1.70;0.80;;;10.10;99.90;;;;;;5074614;28;20281;-62
2022/12/30 00:56:44;;;;;;;0.60;0.40;;;10.00;99.90;;;;;;5074554;28;20240;-63
2022/12/30 00:59:12;;;;;;;1.60;0.67;;;9.90;99.90;;;;;;5074470;28;20292;-62
2022/12/30 01:01:39;;;;;;;1.60;0.57;;;9.70;99.90;;;;;;5074274;28;20755;-62
2022/12/30 01:04:06;;;;;;;0.97;0.53;;;9.70;99.90;;;;;;5074021;28;20270;-62
2022/12/30 01:06:34;;;;;;;0.50;0.50;;;9.60;99.90;;;;;;5074808;28;20301;-62
2022/12/30 01:09:01;;;;;;;0.70;0.53;;;9.60;99.90;;;;;;5074415;28;20312;-64
2022/12/30 01:11:27;;;;;;;1.10;0.67;;;9.60;99.90;;;;;;5074312;28;20304;-62
2022/12/30 01:13:54;;;;;;;1.27;0.50;;;9.60;99.90;;;;;;5074162;28;20283;-64
2022/12/30 01:16:21;;;;;;;1.20;0.50;;;9.60;99.90;;;;;;5073821;28;20223;-62
2022/12/30 01:18:48;;;;;;;0.67;0.50;;;9.60;99.90;;;;;;5074110;28;20220;-62
2022/12/30 01:21:14;;;;;;;0.93;0.30;;;9.60;99.90;;;;;;5074225;28;20233;-62
2022/12/30 01:23:43;;;;;;;0.70;0.50;;;9.70;99.90;;;;;;5074451;28;20641;-62
2022/12/30 01:26:10;;;;;;;0.63;0.53;;;9.70;99.90;;;;;;5073657;28;20694;-63
2022/12/30 01:28:38;;;;;;;0.83;0.53;;;9.60;99.90;;;;;;5073891;28;20209;-62
2022/12/30 01:31:06;;;;;;;0.80;0.70;;;9.60;99.90;;;;;;5073740;28;20216;-62
2022/12/30 01:33:33;;;;;;;0.60;0.50;;;9.60;99.90;;;;;;5074455;28;20267;-61
2022/12/30 01:36:00;;;;;;;1.37;0.67;;;9.50;99.90;;;;;;5073717;28;20205;-61
2022/12/30 01:38:28;;;;;;;2.10;0.70;;;9.40;99.90;;;;;;5073793;28;20701;-62
2022/12/30 01:40:56;;;;;;;1.10;0.47;;;9.40;99.90;;;;;;5073198;28;20247;-62
2022/12/30 01:43:40;;;;;;;0.37;0.30;;;9.40;99.90;;;;;;5073531;28;20225;-62
2022/12/30 01:46:07;;;;;;;0.80;0.50;;;9.40;99.90;;;;;;5073443;28;20212;-63
2022/12/30 01:48:35;;;;;;;1.57;0.50;;;9.50;99.90;;;;;;5073464;28;20626;-62
2022/12/30 01:51:05;;;;;;;0.70;0.60;;;9.60;99.90;;;;;;5073662;28;20236;-62
2022/12/30 01:53:34;;;;;;;0.37;0.37;;;9.60;99.90;;;;;;5073237;28;20704;-61
2022/12/30 01:56:05;;;;;;;1.33;0.40;;;9.60;99.90;;;;;;5073125;28;20204;-61
2022/12/30 01:58:35;;;;;;;0.67;0.27;;;9.60;99.90;;;;;;5073569;28;20208;-61
2022/12/30 02:01:02;;;;;;;0.73;0.40;;;9.60;99.90;;;;;;5073455;28;20250;-62
2022/12/30 02:03:35;;;;;;;0.87;0.43;;;9.60;99.90;;;;;;5073104;28;20236;-62
2022/12/30 02:06:03;;;;;;;1.10;0.50;;;9.60;99.90;;;;;;5072868;28;20208;-62
2022/12/30 02:08:33;;;;;;;1.13;0.30;;;9.60;99.90;;;;;;5073252;28;20213;-62
2022/12/30 02:11:03;;;;;;;1.30;0.33;;;9.60;99.90;;;;;;5073325;28;20669;-62
2022/12/30 02:13:29;;;;;;;1.07;0.50;;;9.50;99.90;;;;;;5073138;28;20224;-61
2022/12/30 02:16:09;;;;;;;0.60;0.47;;;9.50;99.90;;;;;;5072617;28;20205;-62
2022/12/30 02:18:49;;;;;;;1.13;0.47;;;9.50;99.90;;;;;;5073062;28;20324;-62
2022/12/30 02:21:33;;;;;;;0.53;0.30;;;9.30;99.90;;;;;;5073044;28;20196;-62
2022/12/30 02:24:19;;;;;;;0.93;0.37;;;9.20;99.90;;;;;;5072828;28;20224;-62
2022/12/30 02:27:16;;;;;;;0.60;0.33;;;9.00;99.90;;;;;;5072753;28;20694;-62
2022/12/30 02:30:12;;;;;;;1.87;0.43;;;8.90;99.90;;;;;;5072830;28;20216;-62
2022/12/30 02:32:55;;;;;;;0.30;0.30;;;8.90;99.90;;;;;;5072552;28;20236;-62
2022/12/30 02:35:28;;;;;;;1.33;0.60;;;8.80;99.90;;;;;;5073611;28;20262;-62
2022/12/30 02:38:04;;;;;;;1.23;0.60;;;8.70;99.90;;;;;;5072864;28;20270;-61
2022/12/30 02:46:08;;;;;;;1.23;0.63;;;8.60;99.90;;;;;;5072442;28;20204;-62
2022/12/30 02:48:40;;;;;;;1.63;1.10;;;8.50;99.90;;;;;;5072733;28;20258;-62
2022/12/30 02:53:53;;;;;;;1.63;0.70;;;8.30;99.90;;;;;;5073043;28;20257;-62
2022/12/30 02:56:19;;;;;;;1.70;0.93;;;8.30;99.90;;;;;;5073010;28;20209;-62
2022/12/30 02:58:50;;;;;;;0.80;0.60;;;8.30;99.90;;;;;;5072281;28;20204;-62
2022/12/30 03:04:21;;;;;;;2.23;0.70;;;8.20;99.90;;;;;;5072230;28;20329;-62
2022/12/30 03:07:15;;;;;;;0.87;0.50;;;8.20;99.90;;;;;;5072019;28;20737;-63
2022/12/30 03:12:46;;;;;;;1.20;0.50;;;8.20;99.90;;;;;;5072333;28;20295;-63
2022/12/30 03:15:18;;;;;;;1.40;0.67;;;8.20;99.90;;;;;;5072198;28;20333;-62
2022/12/30 03:17:46;;;;;;;0.47;0.40;;;8.10;99.90;;;;;;5072398;28;20559;-62
2022/12/30 03:20:18;;;;;;;1.43;0.50;;;8.00;99.90;;;;;;5072248;28;20300;-63
2022/12/30 03:28:18;;;;;;;1.20;0.40;;;7.90;99.90;;;;;;5072011;28;20680;-63
2022/12/30 03:30:47;;;;;;;0.50;0.50;;;7.90;99.90;;;;;;5071943;28;20691;-62
2022/12/30 03:33:14;;;;;;;0.63;0.50;;;7.70;99.90;;;;;;5071907;28;20229;-63
2022/12/30 03:35:48;;;;;;;1.00;0.47;;;7.70;99.90;;;;;;5071631;28;20595;-63
2022/12/30 03:38:17;;;;;;;0.77;0.50;;;7.60;99.90;;;;;;5072162;28;20642;-64
2022/12/30 03:40:44;;;;;;;0.83;0.50;;;7.50;99.90;;;;;;5072014;28;20215;-61
2022/12/30 03:43:11;;;;;;;1.80;0.60;;;7.50;99.90;;;;;;5071852;28;20278;-62
2022/12/30 03:45:38;;;;;;;1.33;0.67;;;7.40;99.90;;;;;;5071767;28;20235;-62
2022/12/30 03:48:05;;;;;;;1.07;0.73;;;7.40;99.90;;;;;;5071909;28;20204;-62
2022/12/30 03:50:32;;;;;;;1.23;0.60;;;7.40;99.90;;;;;;5071782;28;20213;-61
2022/12/30 03:53:00;;;;;;;1.03;0.40;;;7.30;99.90;;;;;;5072094;28;20224;-62
2022/12/30 03:55:26;;;;;;;0.80;0.43;;;7.30;99.90;;;;;;5071548;28;20209;-63
2022/12/30 03:57:53;;;;;;;1.70;0.60;;;7.20;99.90;;;;;;5071455;28;20664;-63
2022/12/30 04:00:22;;;;;;;1.03;0.43;;;7.10;99.90;;;;;;5071698;28;20212;-62
2022/12/30 04:02:49;;;;;;;0.87;0.47;;;7.10;99.90;;;;;;5072555;28;20703;-63
2022/12/30 04:05:16;;;;;;;1.03;0.50;;;7.00;99.90;;;;;;5075153;28;20204;-63
2022/12/30 04:07:42;;;;;;;1.70;0.70;;;7.00;99.90;;;;;;5075847;28;20205;-62
2022/12/30 04:10:11;;;;;;;1.70;0.70;;;6.90;99.90;;;;;;5075654;28;20258;-62
2022/12/30 04:12:37;;;;;;;0.87;0.50;;;7.00;99.90;;;;;;5075223;28;20712;-62
2022/12/30 04:15:05;;;;;;;1.80;0.80;;;7.00;99.90;;;;;;5075007;28;20229;-63
2022/12/30 04:17:32;;;;;;;1.10;0.50;;;7.00;99.90;;;;;;5075385;28;20310;-63
2022/12/30 04:19:58;;;;;;;1.47;0.80;;;7.00;99.90;;;;;;5075221;28;20259;-63
2022/12/30 04:22:25;;;;;;;0.87;0.43;;;7.00;99.90;;;;;;5075139;28;20583;-63
2022/12/30 04:24:52;;;;;;;1.80;0.80;;;6.90;99.90;;;;;;5074826;28;20209;-63
2022/12/30 04:27:20;;;;;;;1.07;0.57;;;6.80;99.90;;;;;;5075141;28;20483;-63
2022/12/30 04:29:46;;;;;;;0.90;0.40;;;6.80;99.90;;;;;;5075152;28;20251;-63
2022/12/30 04:32:13;;;;;;;1.30;0.47;;;6.90;99.90;;;;;;5074812;28;20240;-63
2022/12/30 04:34:40;;;;;;;1.90;0.57;;;7.00;99.90;;;;;;5075254;28;20209;-63
2022/12/30 04:37:06;;;;;;;0.40;0.40;;;7.00;99.90;;;;;;5075113;28;20259;-63
2022/12/30 04:39:33;;;;;;;1.03;0.60;;;7.00;99.90;;;;;;5075149;28;20209;-67
2022/12/30 04:42:00;;;;;;;2.70;0.70;;;7.00;99.90;;;;;;5074897;28;20228;-63
2022/12/30 04:44:28;;;;;;;0.80;0.30;;;7.00;99.90;;;;;;5074420;28;20274;-63
2022/12/30 04:46:54;;;;;;;1.10;0.37;;;7.00;99.90;;;;;;5074530;28;20668;-63
2022/12/30 04:49:21;;;;;;;0.63;0.40;;;6.80;99.90;;;;;;5074941;28;20263;-63
2022/12/30 04:51:48;;;;;;;2.63;1.40;;;6.90;99.90;;;;;;5074772;28;20232;-64
2022/12/30 04:54:14;;;;;;;53.90;35.40;;;6.90;99.90;;;;;;5074577;28;20695;-63
2022/12/30 04:56:41;;;;;;;15.97;9.83;;;6.80;99.90;;;;;;5074198;28;20664;-62
2022/12/30 04:59:08;;;;;;;3.20;1.77;;;6.80;99.90;;;;;;5074506;28;20213;-62
2022/12/30 05:01:36;;;;;;;1.10;0.70;;;6.70;99.90;;;;;;5074621;28;20282;-62
2022/12/30 05:04:02;;;;;;;1.63;0.60;;;6.60;99.90;;;;;;5074279;28;20637;-62
2022/12/30 05:06:29;;;;;;;1.10;0.90;;;6.60;99.90;;;;;;5074331;28;20205;-61
2022/12/30 05:08:56;;;;;;;1.63;1.10;;;6.60;99.90;;;;;;5074621;28;20209;-63
2022/12/30 05:11:22;;;;;;;1.83;0.83;;;6.60;99.90;;;;;;5074293;28;20205;-62
2022/12/30 05:13:49;;;;;;;6.37;4.40;;;6.60;99.90;;;;;;5073738;28;20274;-61
2022/12/30 05:16:16;;;;;;;3.50;1.20;;;6.60;99.90;;;;;;5073431;28;20212;-61
2022/12/30 05:18:44;;;;;;;1.40;0.90;;;6.60;99.90;;;;;;5074259;28;20624;-64
2022/12/30 05:21:10;;;;;;;2.13;1.00;;;6.60;99.90;;;;;;5074082;28;20622;-61
2022/12/30 05:26:21;;;;;;;3.03;1.57;;;6.50;99.90;;;;;;5073911;28;20243;-62
2022/12/30 05:28:50;;;;;;;2.53;1.33;;;6.40;99.90;;;;;;5074160;28;20611;-62
2022/12/30 05:31:18;;;;;;;3.50;1.40;;;6.40;99.90;;;;;;5073955;28;20216;-63
2022/12/30 05:33:46;;;;;;;1.17;0.90;;;6.40;99.90;;;;;;5073941;28;20331;-62
2022/12/30 05:36:14;;;;;;;2.10;0.87;;;6.40;99.90;;;;;;5073695;28;20680;-61
2022/12/30 05:38:41;;;;;;;4.37;1.00;;;6.30;99.90;;;;;;5073804;28;20601;-62
2022/12/30 05:41:09;;;;;;;2.13;0.70;;;6.30;99.90;;;;;;5073726;28;20205;-63
2022/12/30 05:43:36;;;;;;;1.00;0.70;;;6.30;99.90;;;;;;5073840;28;20294;-62
2022/12/30 05:46:02;;;;;;;2.50;0.90;;;6.20;99.90;;;;;;5073593;28;20251;-61
2022/12/30 05:48:29;;;;;;;2.23;0.80;;;6.20;99.90;;;;;;5073617;28;20575;-62
2022/12/30 05:50:57;;;;;;;1.97;0.80;;;6.20;99.90;;;;;;5073751;28;20254;-62
2022/12/30 05:53:24;;;;;;;1.27;0.90;;;6.10;99.90;;;;;;5073618;28;20217;-62
2022/12/30 05:55:52;;;;;;;2.43;1.10;;;6.00;99.90;;;;;;5073236;28;20650;-62
2022/12/30 05:58:19;;;;;;;2.83;0.90;;;5.90;99.90;;;;;;5073701;28;20201;-63
2022/12/30 06:00:46;;;;;;;1.27;0.60;;;5.80;99.90;;;;;;5073553;28;20254;-62
2022/12/30 06:03:13;;;;;;;0.77;0.70;;;5.80;99.90;;;;;;5073413;28;20221;-63
2022/12/30 06:05:41;;;;;;;0.80;0.67;;;5.80;99.90;;;;;;5073088;28;20230;-62
2022/12/30 06:08:09;;;;;;;1.47;0.93;;;5.80;99.90;;;;;;5073200;28;20201;-62
2022/12/30 06:10:36;;;;;;;1.60;1.00;;;5.70;99.90;;;;;;5073448;28;20236;-62
2022/12/30 06:13:02;;;;;;;2.30;0.80;;;5.60;99.90;;;;;;5073141;28;20233;-62
2022/12/30 06:15:29;;;;;;;1.27;0.77;;;5.50;99.90;;;;;;5073200;28;20208;-62
2022/12/30 06:17:56;;;;;;;1.27;0.73;;;5.50;99.90;;;;;;5073205;28;20204;-63
2022/12/30 06:20:22;;;;;;;1.53;0.70;;;5.50;99.90;;;;;;5073295;28;20258;-62
2022/12/30 06:22:50;;;;;;;0.87;0.67;;;5.40;99.90;;;;;;5072841;28;20774;-62
2022/12/30 06:25:18;;;;;;;1.10;1.00;;;5.40;99.90;;;;;;5072518;28;20260;-62
2022/12/30 06:27:45;;;;;;;2.83;1.07;;;5.40;99.90;;;;;;5072784;28;20216;-62
2022/12/30 06:30:13;;;;;;;0.90;0.80;;;5.50;99.90;;;;;;5072910;28;20310;-62
2022/12/30 06:32:40;;;;;;;1.90;1.13;;;5.50;99.90;;;;;;5072838;28;20248;-62
2022/12/30 06:35:07;;;;;;;1.20;1.10;;;5.40;99.90;;;;;;5072546;28;20246;-62
2022/12/30 06:37:34;;;;;;;1.80;1.20;;;5.30;99.90;;;;;;5072986;28;20204;-62
2022/12/30 06:40:01;;;;;;;1.33;1.13;;;5.20;99.90;;;;;;5072860;28;20201;-62
2022/12/30 06:42:29;;;;;;;2.70;1.30;;;5.20;99.90;;;;;;5072886;28;20240;-62
2022/12/30 06:44:55;;;;;;;3.13;1.63;;;5.10;99.90;;;;;;5072575;28;20221;-62
2022/12/30 06:47:22;;;;;;;2.43;1.60;;;5.00;99.90;;;;;;5073064;28;20224;-63
2022/12/30 06:49:49;;;;;;;4.00;1.63;;;5.00;99.90;;;;;;5072787;28;20258;-62
2022/12/30 06:52:16;;;;;;;2.60;1.70;;;4.80;99.90;;;;;;5072800;28;20229;-62
2022/12/30 06:54:42;;;;;;;2.87;1.40;;;4.70;99.90;;;;;;5072958;28;20254;-63
2022/12/30 06:57:09;;;;;;;1.97;1.50;;;4.70;99.90;;;;;;5072824;28;20201;-62
2022/12/30 06:59:37;;;;;;;2.77;1.90;;;4.60;99.90;;;;;;5073218;28;20205;-62
2022/12/30 07:02:04;;;;;;;2.83;2.10;;;4.60;99.90;;;;;;5072866;28;20228;-62
2022/12/30 07:04:30;;;;;;;3.10;2.03;;;4.70;99.90;;;;;;5073035;28;20763;-62
2022/12/30 07:06:57;;;;;;;3.37;1.83;;;4.70;99.90;;;;;;5072855;28;20227;-62
2022/12/30 07:09:24;;;;;;;3.53;2.60;;;4.70;99.90;;;;;;5073233;28;20204;-62
2022/12/30 07:11:51;;;;;;;3.50;2.73;;;4.70;99.90;;;;;;5073161;28;20370;-63
2022/12/30 07:14:17;;;;;;;8.43;5.63;;;4.70;99.90;;;;;;5073416;28;20200;-62
2022/12/30 07:16:45;;;;;;;9.17;6.10;;;4.60;99.90;;;;;;5087476;28;20215;-63
2022/12/30 07:19:13;;;;;;;7.33;5.20;;;4.40;99.90;;;;;;5089468;28;20282;-62
2022/12/30 07:21:39;;;;;;;8.37;5.83;;;4.30;99.90;;;;;;5087889;28;20229;-63
2022/12/30 07:24:07;;;;;;;9.23;5.87;;;4.20;99.90;;;;;;5087920;28;20217;-62
2022/12/30 07:26:34;;;;;;;6.83;5.10;;;4.30;99.90;;;;;;5084987;28;20234;-62
2022/12/30 07:29:00;;;;;;;4.63;3.40;;;4.30;99.90;;;;;;5087165;28;20201;-62
2022/12/30 07:31:27;;;;;;;4.00;2.90;;;4.40;99.90;;;;;;5083972;28;20258;-61
2022/12/30 07:33:55;;;;;;;3.93;2.73;;;4.50;99.90;;;;;;5085425;28;20680;-63
2022/12/30 07:36:22;;;;;;;3.20;2.43;;;4.50;99.90;;;;;;5083375;28;20216;-63
2022/12/30 07:38:48;;;;;;;5.30;3.30;;;4.50;99.90;;;;;;5075193;28;20211;-65
2022/12/30 07:41:15;;;;;;;3.23;2.37;;;4.40;99.90;;;;;;5087376;28;20209;-62
2022/12/30 07:43:42;;;;;;;2.87;2.20;;;4.40;99.90;;;;;;5085345;28;20232;-63
2022/12/30 07:46:09;;;;;;;4.23;2.30;;;4.30;99.90;;;;;;5082557;28;20207;-63
2022/12/30 07:48:37;;;;;;;3.23;2.10;;;4.20;99.90;;;;;;5082635;28;20209;-63
2022/12/30 07:51:08;;;;;;;2.20;1.90;;;4.30;99.90;;;;;;5082199;28;20201;-63
2022/12/30 07:53:35;;;;;;;2.03;1.70;;;4.30;99.90;;;;;;5079188;28;20661;-63
2022/12/30 07:56:04;;;;;;;1.97;1.77;;;4.30;99.90;;;;;;5074260;28;20262;-62
2022/12/30 07:58:31;;;;;;;2.13;1.67;;;4.30;99.90;;;;;;5072754;28;20201;-63
2022/12/30 08:00:57;;;;;;;3.10;1.90;;;4.30;99.90;;;;;;5072619;28;20231;-63
2022/12/30 08:03:24;;;;;;;2.37;1.83;;;4.30;99.90;;;;;;5073496;28;20228;-63
2022/12/30 08:05:50;;;;;;;2.30;2.00;;;4.30;99.90;;;;;;5073955;28;20205;-63
2022/12/30 08:08:18;;;;;;;2.17;1.80;;;4.30;99.90;;;;;;5075195;28;20208;-62
2022/12/30 08:10:55;;;;;;;2.97;1.83;;;4.30;99.90;;;;;;5073259;28;20254;-63
2022/12/30 08:13:21;;;;;;;2.60;1.90;;;4.50;99.90;;;;;;5073015;28;20629;-63
2022/12/30 08:15:48;;;;;;;2.07;1.80;;;4.70;99.90;;;;;;5072214;28;20201;-64
2022/12/30 08:18:15;;;;;;;2.93;2.60;;;4.80;99.90;;;;;;5069898;28;20209;-66
2022/12/30 08:20:41;;;;;;;2.93;2.20;;;5.00;99.90;;;;;;5071397;28;20212;-67
2022/12/30 08:23:08;;;;;;;2.97;2.43;;;5.20;99.90;;;;;;5072917;28;20248;-65
2022/12/30 08:25:36;;;;;;;3.00;2.43;;;5.40;99.90;;;;;;5070558;28;20256;-68
2022/12/30 08:28:03;;;;;;;3.90;2.53;;;5.60;99.90;;;;;;5070840;28;20210;-68
2022/12/30 08:30:30;;;;;;;3.40;2.80;;;5.80;99.90;;;;;;5071584;28;20217;-67
2022/12/30 08:32:56;;;;;;;2.87;2.40;;;6.00;99.90;;;;;;5071194;28;20233;-65
2022/12/30 08:35:23;;;;;;;3.33;2.10;;;6.00;99.90;;;;;;5071254;28;20619;-65
2022/12/30 08:37:50;;;;;;;4.50;2.30;;;6.00;99.90;;;;;;5072016;28;20205;-65
2022/12/30 08:40:17;;;;;;;3.60;2.30;;;6.10;99.90;;;;;;5073040;28;20201;-65
2022/12/30 08:42:45;;;;;;;2.77;2.13;;;6.20;99.90;;;;;;5072905;28;20232;-64
2022/12/30 08:45:12;;;;;;;2.27;1.90;;;6.30;99.90;;;;;;5074473;28;20251;-65
2022/12/30 08:47:39;;;;;;;2.93;1.93;;;6.40;99.90;;;;;;5071469;28;20727;-66
2022/12/30 08:50:07;;;;;;;3.17;1.77;;;6.50;99.90;;;;;;5071875;28;20228;-65
2022/12/30 08:52:34;;;;;;;3.13;2.10;;;6.60;99.90;;;;;;5074449;28;20232;-65
2022/12/30 08:55:00;;;;;;;3.50;2.10;;;6.60;99.90;;;;;;5074099;28;20201;-65
2022/12/30 08:57:27;;;;;;;3.23;1.83;;;6.60;99.90;;;;;;5075142;28;20209;-65
2022/12/30 08:59:55;;;;;;;2.70;1.97;;;6.60;99.90;;;;;;5074493;28;20258;-65
2022/12/30 09:02:22;;;;;;;4.03;1.80;;;6.80;99.90;;;;;;5074037;28;20289;-65
2022/12/30 09:04:48;;;;;;;2.57;1.50;;;6.90;99.90;;;;;;5074084;28;20220;-65
2022/12/30 09:07:15;;;;;;;3.07;2.20;;;7.00;99.90;;;;;;5073886;28;20629;-67
2022/12/30 09:09:42;;;;;;;3.20;2.17;;;7.00;99.90;;;;;;5074369;28;20247;-65
2022/12/30 09:12:08;;;;;;;2.73;1.47;;;6.90;99.90;;;;;;5074108;28;20225;-65
2022/12/30 09:14:35;;;;;;;2.17;1.70;;;6.90;99.90;;;;;;5073871;28;20201;-67
2022/12/30 09:17:03;;;;;;;2.07;1.40;;;6.90;99.90;;;;;;5073653;28;20370;-68
2022/12/30 09:19:30;;;;;;;2.03;1.40;;;7.00;99.90;;;;;;5073811;28;20238;-67
2022/12/30 09:21:56;;;;;;;1.43;1.20;;;7.00;99.90;;;;;;5073404;28;20225;-67
2022/12/30 09:24:23;;;;;;;1.90;1.30;;;7.00;99.90;;;;;;5073724;28;20220;-66
2022/12/30 09:26:50;;;;;;;1.07;0.97;;;7.10;99.90;;;;;;5073055;28;20227;-67
2022/12/30 09:29:17;;;;;;;2.17;1.33;;;7.20;99.90;;;;;;5072922;28;20216;-66
2022/12/30 09:31:44;;;;;;;1.27;0.77;;;7.20;99.90;;;;;;5073165;28;20236;-66
2022/12/30 09:34:12;;;;;;;1.07;0.90;;;7.30;99.90;;;;;;5073069;28;20234;-65
2022/12/30 09:36:39;;;;;;;1.30;0.80;;;7.40;99.90;;;;;;5072733;28;20209;-66
2022/12/30 09:39:06;;;;;;;1.73;1.13;;;7.60;99.90;;;;;;5072897;28;20718;-66
2022/12/30 09:44:37;;;;;;;2.03;1.20;;;7.80;99.90;;;;;;5073221;28;20819;-66
2022/12/30 09:47:10;;;;;;;2.57;1.90;;;7.90;99.90;;;;;;5072626;28;20216;-66
2022/12/30 09:49:43;;;;;;;4.07;2.13;;;7.90;99.90;;;;;;5073053;28;20209;-66
2022/12/30 09:52:17;;;;;;;2.40;1.37;;;7.90;99.90;;;;;;5072528;28;20274;-67
2022/12/30 09:54:49;;;;;;;3.27;1.90;;;8.00;99.90;;;;;;5072696;28;20698;-66
2022/12/30 09:57:32;;;;;;;2.53;1.30;;;8.10;99.90;;;;;;5072449;28;20644;-67
2022/12/30 10:00:04;;;;;;;4.60;1.87;;;8.20;99.90;;;;;;5072973;28;20579;-65
2022/12/30 10:02:38;;;;;;;2.30;1.67;;;8.30;99.90;;;;;;5072345;28;20232;-66
2022/12/30 10:05:12;;;;;;;2.87;1.43;;;8.40;99.90;;;;;;5072170;28;20221;-65
2022/12/30 10:07:46;;;;;;;3.57;2.03;;;8.50;99.90;;;;;;5073361;28;20445;-68
2022/12/30 10:10:18;;;;;;;3.17;1.43;;;8.50;99.90;;;;;;5072519;28;20208;-68
2022/12/30 10:12:51;;;;;;;3.93;2.23;;;8.70;99.90;;;;;;5072264;28;20716;-66
2022/12/30 10:15:44;;;;;;;2.90;1.80;;;9.00;99.90;;;;;;5071947;28;20209;-66
2022/12/30 10:18:25;;;;;;;2.30;1.10;;;9.30;99.90;;;;;;5069530;28;20209;-67
2022/12/30 10:21:05;;;;;;;1.57;0.90;;;9.40;99.90;;;;;;5072217;28;20258;-65
2022/12/30 10:23:49;;;;;;;17.57;9.83;;;9.60;99.90;;;;;;5072487;28;20240;-64
2022/12/30 10:26:21;;;;;;;4.67;2.10;;;9.80;99.90;;;;;;5071847;28;20490;-65
2022/12/30 10:28:51;;;;;;;2.53;1.30;;;9.90;99.90;;;;;;5071708;28;20240;-65
2022/12/30 10:31:20;;;;;;;1.20;0.87;;;10.10;99.90;;;;;;5072824;28;20212;-65
2022/12/30 10:33:49;;;;;;;1.17;0.70;;;10.10;99.90;;;;;;5072935;28;20248;-66
2022/12/30 10:36:21;;;;;;;0.80;0.70;;;10.30;99.90;;;;;;5074268;28;20208;-66
2022/12/30 10:38:47;;;;;;;2.07;1.27;;;10.30;99.90;;;;;;5075987;28;20205;-66
2022/12/30 10:41:31;;;;;;;1.93;0.87;;;10.20;99.90;;;;;;5075126;28;20269;-66
2022/12/30 10:44:05;;;;;;;1.23;0.73;;;10.40;99.90;;;;;;5075469;28;20208;-65
2022/12/30 10:46:44;;;;;;;2.10;1.13;;;10.50;99.90;;;;;;5075993;28;20228;-65
2022/12/30 10:49:28;;;;;;;1.60;0.80;;;10.60;99.90;;;;;;5075850;28;20200;-65
2022/12/30 10:51:57;;;;;;;1.57;0.80;;;10.50;99.90;;;;;;5075596;28;20224;-64
2022/12/30 10:54:24;;;;;;;0.77;0.60;;;10.70;99.90;;;;;;5076738;28;20217;-65
2022/12/30 10:56:50;;;;;;;2.50;1.63;;;10.90;99.90;;;;;;5079698;28;20239;-65
2022/12/30 10:59:21;;;;;;;1.17;0.60;;;11.00;99.90;;;;;;5074472;28;20205;-65
2022/12/30 11:01:49;;;;;;;3.20;0.63;;;11.10;99.90;;;;;;5074387;28;20231;-66
2022/12/30 11:04:34;;;;;;;1.23;0.43;;;11.20;99.90;;;;;;5074199;28;20219;-64
2022/12/30 11:07:04;;;;;;;2.67;0.90;;;11.30;99.90;;;;;;5075491;28;20669;-65
2022/12/30 11:09:31;;;;;;;2.37;0.80;;;11.40;99.90;;;;;;5075173;28;20259;-64
2022/12/30 11:14:46;;;;;;;1.40;0.73;;;11.50;99.90;;;;;;5072291;28;20199;-64
2022/12/30 11:17:23;;;;;;;2.60;0.90;;;11.60;99.90;;;;;;5070691;28;20282;-63
2022/12/30 11:19:54;;;;;;;1.30;0.73;;;11.70;99.90;;;;;;5071478;28;20277;-67
2022/12/30 11:22:23;;;;;;;1.80;0.80;;;11.80;99.90;;;;;;5071454;28;20229;-65
2022/12/30 11:24:59;;;;;;;0.97;0.70;;;11.90;99.90;;;;;;5071086;28;20229;-64
2022/12/30 11:27:44;;;;;;;0.53;0.53;;;11.90;99.90;;;;;;5072116;28;20209;-68
2022/12/30 11:30:25;;;;;;;1.83;1.00;;;11.90;99.90;;;;;;5072498;28;20228;-65
2022/12/30 11:32:52;;;;;;;1.30;0.63;;;12.00;99.90;;;;;;5072792;28;20293;-64
2022/12/30 11:35:40;;;;;;;1.70;0.60;;;12.00;99.90;;;;;;5073179;28;20212;-64
2022/12/30 11:38:31;;;;;;;2.07;1.00;;;12.10;99.90;;;;;;5072923;28;20205;-64
2022/12/30 11:41:21;;;;;;;1.50;0.97;;;12.10;99.90;;;;;;5071323;28;20208;-64
2022/12/30 11:43:49;;;;;;;0.80;0.60;;;12.10;99.90;;;;;;5072879;28;20185;-63
2022/12/30 11:46:18;;;;;;;6.03;4.33;;;12.10;99.90;;;;;;5070747;28;20575;-69
2022/12/30 11:48:48;;;;;;;2.07;1.00;;;12.10;99.90;;;;;;5072022;28;20219;-63
2022/12/30 11:51:19;;;;;;;1.03;0.70;;;12.20;99.90;;;;;;5071100;28;20600;-64
2022/12/30 11:53:49;;;;;;;2.40;0.90;;;12.20;99.90;;;;;;5073437;28;20209;-64
2022/12/30 11:56:22;;;;;;;3.23;0.70;;;12.20;99.90;;;;;;5070768;28;20665;-64
2022/12/30 11:58:49;;;;;;;0.70;0.60;;;12.20;99.90;;;;;;5071383;28;20227;-63
2022/12/30 12:01:16;;;;;;;0.97;0.70;;;12.30;99.90;;;;;;5071580;28;20209;-63
2022/12/30 12:03:48;;;;;;;2.53;1.00;;;12.40;99.90;;;;;;5070963;28;20205;-62
2022/12/30 12:06:15;;;;;;;3.53;0.93;;;12.40;99.90;;;;;;5072096;28;20225;-63
2022/12/30 12:08:53;;;;;;;0.90;0.60;;;12.40;99.90;;;;;;5070417;28;20209;-65
2022/12/30 12:11:23;;;;;;;2.40;1.30;;;12.40;99.90;;;;;;5071224;28;20207;-62
2022/12/30 12:13:59;;;;;;;0.77;0.67;;;12.50;99.90;;;;;;5072164;28;20205;-64
2022/12/30 12:16:42;;;;;;;1.50;0.90;;;12.40;99.90;;;;;;5071148;28;20291;-64
2022/12/30 12:19:20;;;;;;;1.73;0.90;;;12.70;99.90;;;;;;5070963;28;20204;-64
2022/12/30 12:21:50;;;;;;;1.63;0.87;;;12.30;99.90;;;;;;5074594;28;20274;-64
2022/12/30 12:24:23;;;;;;;3.60;1.00;;;12.60;99.90;;;;;;5073369;28;20201;-62
2022/12/30 12:26:55;;;;;;;1.30;0.80;;;12.80;99.90;;;;;;5074611;28;20220;-63
2022/12/30 12:29:22;;;;;;;0.97;0.87;;;13.00;99.90;;;;;;5074374;28;20673;-63
2022/12/30 12:32:10;;;;;;;1.43;0.90;;;13.20;99.90;;;;;;5074858;28;20482;-63
2022/12/30 12:34:46;;;;;;;1.23;0.97;;;13.20;99.90;;;;;;5074348;28;20204;-64
2022/12/30 12:37:26;;;;;;;1.20;0.90;;;13.30;99.90;;;;;;5074527;28;20207;-64
2022/12/30 12:40:14;;;;;;;1.47;0.70;;;13.20;99.90;;;;;;5075119;28;20263;-63
2022/12/30 12:42:49;;;;;;;2.13;1.73;;;13.20;99.90;;;;;;5074826;28;20224;-63
2022/12/30 12:45:42;;;;;;;25.23;20.97;;;13.30;99.90;;;;;;5073849;28;20228;-62
2022/12/30 12:48:29;;;;;;;0.60;0.50;;;13.20;99.90;;;;;;5073997;28;20236;-62
2022/12/30 12:51:11;;;;;;;1.80;1.27;;;12.90;99.90;;;;;;5074216;28;20216;-62
2022/12/30 12:53:53;;;;;;;1.03;0.80;;;12.70;99.90;;;;;;5073588;28;20221;-64
2022/12/30 12:56:49;;;;;;;2.20;1.00;;;12.70;99.90;;;;;;5073665;28;20205;-64
2022/12/30 12:59:29;;;;;;;2.10;0.93;;;12.60;99.90;;;;;;5067279;28;20209;-64
2022/12/30 13:02:03;;;;;;;1.00;0.80;;;12.70;99.90;;;;;;5073733;28;20221;-62
2022/12/30 13:04:38;;;;;;;1.73;0.90;;;12.90;99.90;;;;;;5074561;28;20738;-64
2022/12/30 13:07:15;;;;;;;1.67;1.13;;;13.00;99.90;;;;;;5074348;28;20228;-63
2022/12/30 13:10:01;;;;;;;1.77;0.90;;;13.00;99.90;;;;;;5073913;28;20216;-64
2022/12/30 13:12:32;;;;;;;1.10;0.80;;;13.10;99.90;;;;;;5074855;28;20586;-63
2022/12/30 13:15:19;;;;;;;1.30;0.90;;;13.00;99.90;;;;;;5073212;28;20246;-64
2022/12/30 13:17:47;;;;;;;1.67;0.70;;;12.90;99.90;;;;;;5073470;28;20301;-64
2022/12/30 13:20:17;;;;;;;0.57;0.40;;;12.90;99.90;;;;;;5073333;28;20234;-63
2022/12/30 13:22:45;;;;;;;1.13;0.50;;;12.90;99.90;;;;;;5073429;28;20254;-64
2022/12/30 13:25:16;;;;;;;1.77;0.60;;;12.90;99.90;;;;;;5073831;28;20209;-64
2022/12/30 13:27:46;;;;;;;2.10;0.73;;;13.00;99.90;;;;;;5074551;28;20205;-62
2022/12/30 13:30:15;;;;;;;2.27;1.87;;;13.00;99.90;;;;;;5072530;28;20209;-63
2022/12/30 13:32:52;;;;;;;0.97;0.73;;;13.00;99.90;;;;;;5096543;22;20278;-57
2022/12/30 13:35:37;;;;;;;1.43;0.40;;;12.90;99.90;;;;;;5064359;28;20710;-57
2022/12/30 13:38:13;;;;;;;0.80;0.60;;;13.00;99.90;;;;;;5073416;28;20201;-57
2022/12/30 13:40:48;;;;;;;2.00;0.90;;;13.00;99.90;;;;;;5072882;28;20702;-58
2022/12/30 13:43:29;;;;;;;2.97;1.50;;;12.90;99.90;;;;;;5073014;28;20239;-57
2022/12/30 13:45:57;;;;;;;1.00;0.60;;;12.90;99.90;;;;;;5072867;28;20228;-56
2022/12/30 13:48:28;;;;;;;0.80;0.80;;;12.90;99.90;;;;;;5073054;28;20197;-57
2022/12/30 13:51:06;;;;;;;1.93;1.17;;;12.90;99.90;;;;;;5073337;28;20269;-57
2022/12/30 13:53:41;;;;;;;1.40;0.97;;;13.00;99.90;;;;;;5073713;28;20239;-57
2022/12/30 13:56:09;;;;;;;1.80;1.23;;;13.00;99.90;;;;;;5072601;28;20201;-60
2022/12/30 13:58:44;;;;;;;1.20;0.90;;;13.10;99.90;;;;;;5073193;28;20213;-59
2022/12/30 14:01:27;;;;;;;1.43;1.13;;;13.10;99.90;;;;;;5072729;28;20202;-59
2022/12/30 14:04:42;;;;;;;1.33;1.03;;;13.10;99.90;;;;;;5073139;28;20228;-59
2022/12/30 14:07:49;;;;;;;1.57;1.03;;;13.00;99.90;;;;;;5072426;28;20248;-57
2022/12/30 14:10:51;;;;;;;1.30;0.90;;;12.80;99.90;;;;;;5072886;28;20601;-59